Elfrida, Arizona
Current Conditions -  °F | °C
As of 2:56 PM on Thursday 23 Oct 2014 (Local Time) from KDUG Reporting Station
Clear Clear  
Wind Chill: 82°   Ceiling: Unl
Heat Index: 82°   Visibility: 10mi
Dew Point: 44°   Wind: 3mph
Humidity: 26%   Direction: NA
Pressure: 30.12"   Gusts: NA
Location:  31.69°N, 109.69°W
Report Text: KDUG 232156Z AUTO VRB03KT 10SM CLR 28/07 A3012 RMK AO2 SLP141 T02780067
Loading
Personal Weather Stations






























Interactive Weather Map
Tropical Storm Tracking
New forecast layout! Learn more

10-Day Weather Forecast

Advertisements
Track Severe Weather on mobile